Saturday, November 18, 2017, 6:03 PM EST
Back to Local

KWVL, Waterville, Waterville Robert Lafleur Airport

Location: Waterville, ME, United States Lat: 44.533
Local Time: 6:03 PM EST (23:03 GMT) Lon: -69.683
Time Zone: US/Eastern Elev: 334 ft

Show me the last for .
Show Coded

Time T Td Feel RH Dir Speed Gust Alt SLP Vis Weather Sky Remarks
2017-11-18 17:56 36 21 33 54 Variable 3 - 29.68 29.77 10 OVC100 None
2017-11-18 16:56 36 18 33 47 Variable 3 - 29.68 29.78 10 OVC110 None
2017-11-18 15:56 37 14 - 38 - Calm - 29.71 29.81 10 BKN095 OVC120 None
2017-11-18 14:56 38 13 - 35 - Calm - 29.71 29.80 10 FEW120 None
2017-11-18 13:56 38 9 - 29 - Calm - 29.77 29.86 10 CLR None
2017-11-18 12:56 38 5 - 24 - Calm - 29.77 29.86 10 CLR 6-hr Min Temp (1pm): 21.9°F
6-hr Max Temp (1pm): 39.0°F
2017-11-18 11:56 38 7 36 27 Variable 3 - 29.81 29.90 10 CLR None
2017-11-18 10:56 35 16 31 45 Variable 5 - 29.84 29.93 10 CLR None
2017-11-18 09:56 31 18 27 58 Variable 3 - 29.88 29.97 10 CLR None
2017-11-18 08:56 29 16 - 57 - Calm - 29.88 29.98 10 BKN110 None
2017-11-18 07:56 25 16 - 68 - Calm - 29.88 29.98 10 CLR None
2017-11-18 06:56 22 15 - 74 - Calm - 29.88 29.98 10 CLR 6-hr Min Temp (7am): 21.9°F
6-hr Max Temp (7am): 25.0°F
2017-11-18 05:56 24 14 17 64 Variable 6 - 29.87 29.97 10 CLR None
2017-11-18 04:56 24 15 16 68 270° 7 - 29.87 29.96 10 CLR None
2017-11-18 03:56 25 16 18 68 300° 6 - 29.88 29.97 10 CLR None
2017-11-18 02:56 25 16 15 68 260° 10 - 29.87 29.97 10 CLR None
2017-11-18 01:56 24 17 17 74 230° 6 - 29.87 29.97 10 CLR None
2017-11-18 00:56 24 17 17 74 280° 6 - 29.86 29.96 10 CLR 6-hr Min Temp (1am): 24.1°F
6-hr Max Temp (1am): 28.0°F
2017-11-17 23:56 27 15 22 60 270° 5 - 29.87 29.96 10 CLR 24-hr Min Temp (12am): 27.0°F
24-hr Max Temp (12am): 39.9°F
2017-11-17 22:56 27 16 - 62 - Calm - 29.86 29.96 10 CLR None
2017-11-17 21:56 27 17 22 65 Variable 5 - 29.84 29.93 10 CLR None
2017-11-17 20:56 27 17 20 65 250° 6 - 29.85 29.94 10 CLR None
2017-11-17 19:56 28 17 22 62 310° 6 - 29.84 29.93 10 CLR None
2017-11-17 18:56 28 17 15 62 270° 12 18 29.83 29.92 10 CLR 6-hr Min Temp (7pm): 28.0°F
6-hr Max Temp (7pm): 37.0°F

Support USWX by starting your Amazon purchase here.